Gosberton, United Kingdom
Current Conditions -  °F | °C
As of 11:50 AM on Monday 20 Oct 2014 (Local Time) from EGXC Reporting Station
Overcast Overcast  
Wind Chill: 57°   Ceiling: 9000
Heat Index: 57°   Visibility: 6mi
Dew Point: 50°   Wind: 15mph
Humidity: 77%   Direction: 240°WSW
Pressure: 29.91"   Gusts: NA
Location:  52.87°N, 0.16°W
Report Text: EGXC 201050Z 24013KT 9999 FEW020 SCT045 OVC090 14/10 Q1013 BLU TEMPO 7000 SHRA SCT018 WHT
Loading
Personal Weather Stations






























Interactive Weather Map New forecast layout! Learn more

10-Day Weather Forecast

Advertisements
Track Severe Weather on mobile